createdAt,value
2023-03-02T00:03:54.802Z,5774.82178
2023-03-02T00:18:57.121Z,6261.45068
2023-03-02T00:33:59.388Z,3257.77612
2023-03-02T00:49:01.821Z,2391.19336
2023-03-02T01:04:04.029Z,1270.50879
2023-03-02T01:19:06.265Z,611.28253
2023-03-02T01:34:08.496Z,225.33551
2023-03-02T01:49:10.749Z,29.96483
2023-03-02T02:04:13.155Z,2.39719
2023-03-02T02:19:15.457Z,0
2023-03-02T02:34:17.715Z,0
2023-03-02T02:49:20.046Z,0
2023-03-02T03:04:22.449Z,0
2023-03-02T03:19:24.774Z,0
2023-03-02T03:34:26.982Z,0
2023-03-02T03:49:29.158Z,0
2023-03-02T04:04:31.369Z,0
2023-03-02T04:19:33.736Z,0
2023-03-02T04:34:36.213Z,0
2023-03-02T04:49:38.476Z,0
2023-03-02T05:04:40.756Z,0
2023-03-02T05:19:43.074Z,0
2023-03-02T05:34:45.433Z,0
2023-03-02T05:49:47.685Z,0
2023-03-02T06:04:49.857Z,0
2023-03-02T06:19:52.113Z,0
2023-03-02T06:34:54.791Z,0
2023-03-02T06:49:57.146Z,0
2023-03-02T07:04:59.417Z,0
2023-03-02T07:20:01.900Z,0
2023-03-02T07:35:04.104Z,0
2023-03-02T07:50:06.615Z,0
2023-03-02T08:05:08.859Z,0
2023-03-02T08:20:11.068Z,0
2023-03-02T08:35:13.271Z,0
2023-03-02T08:50:15.552Z,0
2023-03-02T09:05:17.813Z,0
2023-03-02T09:20:19.983Z,0
2023-03-02T09:35:22.197Z,0
2023-03-02T10:05:35.670Z,0
2023-03-02T10:20:37.871Z,0
2023-03-02T10:35:40.458Z,0
2023-03-02T10:50:42.727Z,0
2023-03-02T11:05:45.116Z,0
2023-03-02T11:20:47.288Z,0
2023-03-02T11:35:49.565Z,0
2023-03-02T11:50:52.102Z,0
2023-03-02T12:05:54.608Z,0
2023-03-02T12:20:56.825Z,0
2023-03-02T12:35:59.115Z,0
2023-03-02T12:51:01.431Z,0
2023-03-02T13:06:03.864Z,0
2023-03-02T13:21:06.117Z,0
2023-03-02T13:36:08.592Z,0
2023-03-02T13:51:10.850Z,0
2023-03-02T14:06:13.091Z,1.19859
2023-03-02T14:21:15.393Z,15.58171
2023-03-02T14:36:17.669Z,86.29871
2023-03-02T14:51:19.970Z,206.15802
2023-03-02T15:06:22.190Z,384.74841
2023-03-02T15:21:24.480Z,498.61475
2023-03-02T15:36:26.686Z,665.21918
2023-03-02T15:51:29.073Z,948.08716
2023-03-02T16:06:31.363Z,1181.81287
2023-03-02T16:21:33.646Z,1358.00598
2023-03-02T16:36:35.937Z,1391.56665
2023-03-02T16:51:38.193Z,1752.34314
2023-03-02T17:06:43.498Z,2110.72241
2023-03-02T17:21:45.920Z,2652.48657
2023-03-02T17:36:48.232Z,2410.37085
2023-03-02T17:51:56.736Z,2012.43787
2023-03-02T18:06:59.007Z,2593.75562
2023-03-02T18:22:01.390Z,3332.08887
2023-03-02T18:37:03.484Z,5271.4126
2023-03-02T18:52:05.767Z,6171.55615
2023-03-02T19:07:07.983Z,7855.57959
2023-03-02T19:22:10.175Z,7385.73096
2023-03-02T19:37:19.575Z,6895.50635
2023-03-02T19:52:22.187Z,7349.77295
2023-03-02T20:07:24.483Z,6689.34814
2023-03-02T20:22:26.714Z,4860.29541
2023-03-02T20:37:28.987Z,5535.10303
2023-03-02T20:52:31.235Z,12272.39551
2023-03-02T21:07:33.515Z,17420.35352
2023-03-02T21:22:35.879Z,20539.0918
2023-03-02T21:37:38.172Z,11114.55371
2023-03-02T21:52:40.402Z,16590.92578
2023-03-02T22:07:42.658Z,14864.95215
2023-03-02T22:22:44.851Z,10994.69531
2023-03-02T22:37:47.080Z,14938.06641
2023-03-02T22:52:49.334Z,5737.66553
2023-03-02T23:07:51.770Z,10890.41699
2023-03-02T23:22:54.088Z,19523.88281
2023-03-02T23:37:56.313Z,9277.11133
2023-03-02T23:52:58.560Z,3635.33301
